sensor_id;sensor_type;location;lat;lon;timestamp;P1;durP1;ratioP1;P2;durP2;ratioP2
33287;SDS011;19657;50.452;30.372;2024-01-27T00:00:56;12.00;;;8.20;;
33287;SDS011;19657;50.452;30.372;2024-01-27T00:03:42;19.00;;;10.50;;
33287;SDS011;19657;50.452;30.372;2024-01-27T00:06:28;13.30;;;8.60;;
33287;SDS011;19657;50.452;30.372;2024-01-27T00:09:15;14.80;;;9.20;;
33287;SDS011;19657;50.452;30.372;2024-01-27T00:12:01;15.80;;;9.20;;
33287;SDS011;19657;50.452;30.372;2024-01-27T00:14:47;12.20;;;8.80;;
33287;SDS011;19657;50.452;30.372;2024-01-27T00:17:33;14.80;;;9.10;;
33287;SDS011;19657;50.452;30.372;2024-01-27T00:20:21;12.90;;;7.60;;
33287;SDS011;19657;50.452;30.372;2024-01-27T00:23:07;12.70;;;8.40;;
33287;SDS011;19657;50.452;30.372;2024-01-27T00:25:53;14.00;;;8.70;;
33287;SDS011;19657;50.452;30.372;2024-01-27T00:28:40;15.40;;;9.30;;
33287;SDS011;19657;50.452;30.372;2024-01-27T00:31:26;12.30;;;8.60;;
33287;SDS011;19657;50.452;30.372;2024-01-27T00:34:12;14.50;;;8.80;;
33287;SDS011;19657;50.452;30.372;2024-01-27T00:36:58;15.50;;;8.60;;
33287;SDS011;19657;50.452;30.372;2024-01-27T00:39:44;14.60;;;8.90;;
33287;SDS011;19657;50.452;30.372;2024-01-27T00:42:31;13.30;;;8.30;;
33287;SDS011;19657;50.452;30.372;2024-01-27T00:45:17;13.50;;;9.10;;
33287;SDS011;19657;50.452;30.372;2024-01-27T00:48:02;13.80;;;8.30;;
33287;SDS011;19657;50.452;30.372;2024-01-27T00:50:49;14.30;;;9.40;;
33287;SDS011;19657;50.452;30.372;2024-01-27T00:53:35;14.00;;;9.30;;
33287;SDS011;19657;50.452;30.372;2024-01-27T00:56:21;17.60;;;10.50;;
33287;SDS011;19657;50.452;30.372;2024-01-27T00:59:07;16.90;;;10.20;;
33287;SDS011;19657;50.452;30.372;2024-01-27T01:01:53;18.80;;;10.30;;
33287;SDS011;19657;50.452;30.372;2024-01-27T01:04:39;16.80;;;9.30;;
33287;SDS011;19657;50.452;30.372;2024-01-27T01:07:27;14.90;;;9.30;;
33287;SDS011;19657;50.452;30.372;2024-01-27T01:10:13;15.60;;;9.70;;
33287;SDS011;19657;50.452;30.372;2024-01-27T01:12:59;13.00;;;9.00;;
33287;SDS011;19657;50.452;30.372;2024-01-27T01:15:45;17.60;;;10.20;;
33287;SDS011;19657;50.452;30.372;2024-01-27T01:18:31;16.10;;;9.90;;
33287;SDS011;19657;50.452;30.372;2024-01-27T01:21:18;15.90;;;10.20;;
33287;SDS011;19657;50.452;30.372;2024-01-27T01:24:04;16.20;;;10.20;;
33287;SDS011;19657;50.452;30.372;2024-01-27T01:26:50;17.30;;;10.00;;
33287;SDS011;19657;50.452;30.372;2024-01-27T01:29:36;14.60;;;8.60;;
33287;SDS011;19657;50.452;30.372;2024-01-27T01:32:22;20.00;;;12.00;;
33287;SDS011;19657;50.452;30.372;2024-01-27T01:35:10;16.70;;;9.90;;
33287;SDS011;19657;50.452;30.372;2024-01-27T01:37:56;17.00;;;10.10;;
33287;SDS011;19657;50.452;30.372;2024-01-27T01:40:42;15.10;;;9.60;;
33287;SDS011;19657;50.452;30.372;2024-01-27T01:43:28;15.20;;;9.40;;
33287;SDS011;19657;50.452;30.372;2024-01-27T01:46:14;13.60;;;7.80;;
33287;SDS011;19657;50.452;30.372;2024-01-27T01:49:00;13.10;;;8.70;;
33287;SDS011;19657;50.452;30.372;2024-01-27T01:51:46;12.60;;;8.00;;
33287;SDS011;19657;50.452;30.372;2024-01-27T01:54:33;14.70;;;9.00;;
33287;SDS011;19657;50.452;30.372;2024-01-27T01:57:20;10.80;;;7.10;;
33287;SDS011;19657;50.452;30.372;2024-01-27T02:00:07;11.70;;;7.60;;
33287;SDS011;19657;50.452;30.372;2024-01-27T02:02:59;9.50;;;6.30;;
33287;SDS011;19657;50.452;30.372;2024-01-27T02:05:46;10.00;;;6.50;;
33287;SDS011;19657;50.452;30.372;2024-01-27T02:08:32;11.90;;;7.00;;
33287;SDS011;19657;50.452;30.372;2024-01-27T02:11:18;9.90;;;6.60;;
33287;SDS011;19657;50.452;30.372;2024-01-27T02:14:05;8.20;;;5.50;;
33287;SDS011;19657;50.452;30.372;2024-01-27T02:16:52;9.90;;;6.30;;
33287;SDS011;19657;50.452;30.372;2024-01-27T02:19:38;8.70;;;6.00;;
33287;SDS011;19657;50.452;30.372;2024-01-27T02:22:25;9.40;;;6.20;;
33287;SDS011;19657;50.452;30.372;2024-01-27T02:25:11;9.90;;;6.70;;
33287;SDS011;19657;50.452;30.372;2024-01-27T02:27:57;10.20;;;6.90;;
33287;SDS011;19657;50.452;30.372;2024-01-27T02:30:43;9.30;;;6.10;;
33287;SDS011;19657;50.452;30.372;2024-01-27T02:33:30;10.90;;;6.80;;
33287;SDS011;19657;50.452;30.372;2024-01-27T02:36:16;10.90;;;7.20;;
33287;SDS011;19657;50.452;30.372;2024-01-27T02:39:02;12.40;;;7.10;;
33287;SDS011;19657;50.452;30.372;2024-01-27T02:41:48;10.70;;;6.60;;
33287;SDS011;19657;50.452;30.372;2024-01-27T02:44:34;10.40;;;6.40;;
33287;SDS011;19657;50.452;30.372;2024-01-27T02:47:20;10.40;;;6.60;;
33287;SDS011;19657;50.452;30.372;2024-01-27T02:50:06;9.20;;;6.00;;
33287;SDS011;19657;50.452;30.372;2024-01-27T02:52:53;9.80;;;6.70;;
33287;SDS011;19657;50.452;30.372;2024-01-27T02:55:39;12.10;;;6.90;;
33287;SDS011;19657;50.452;30.372;2024-01-27T02:58:25;9.50;;;6.70;;
33287;SDS011;19657;50.452;30.372;2024-01-27T03:01:10;11.10;;;7.40;;
33287;SDS011;19657;50.452;30.372;2024-01-27T03:03:57;14.70;;;8.30;;
33287;SDS011;19657;50.452;30.372;2024-01-27T03:06:43;17.00;;;9.10;;
33287;SDS011;19657;50.452;30.372;2024-01-27T03:09:29;19.10;;;10.10;;
33287;SDS011;19657;50.452;30.372;2024-01-27T03:12:15;17.20;;;9.90;;
33287;SDS011;19657;50.452;30.372;2024-01-27T03:15:01;20.40;;;10.80;;
33287;SDS011;19657;50.452;30.372;2024-01-27T03:17:48;13.90;;;9.30;;
33287;SDS011;19657;50.452;30.372;2024-01-27T03:20:34;12.20;;;7.70;;
33287;SDS011;19657;50.452;30.372;2024-01-27T03:23:20;10.20;;;7.30;;
33287;SDS011;19657;50.452;30.372;2024-01-27T03:26:06;11.60;;;6.90;;
33287;SDS011;19657;50.452;30.372;2024-01-27T03:28:52;9.70;;;6.50;;
33287;SDS011;19657;50.452;30.372;2024-01-27T03:31:38;9.80;;;6.60;;
33287;SDS011;19657;50.452;30.372;2024-01-27T03:34:25;9.10;;;6.50;;
33287;SDS011;19657;50.452;30.372;2024-01-27T03:37:13;13.20;;;7.80;;
33287;SDS011;19657;50.452;30.372;2024-01-27T03:39:59;9.70;;;6.40;;
33287;SDS011;19657;50.452;30.372;2024-01-27T03:42:45;11.40;;;7.50;;
33287;SDS011;19657;50.452;30.372;2024-01-27T03:45:30;12.00;;;7.70;;
33287;SDS011;19657;50.452;30.372;2024-01-27T03:48:18;13.00;;;8.60;;
33287;SDS011;19657;50.452;30.372;2024-01-27T03:51:04;14.20;;;7.40;;
33287;SDS011;19657;50.452;30.372;2024-01-27T03:53:50;12.20;;;7.90;;
33287;SDS011;19657;50.452;30.372;2024-01-27T03:56:37;10.50;;;7.50;;
33287;SDS011;19657;50.452;30.372;2024-01-27T03:59:23;10.40;;;6.90;;
33287;SDS011;19657;50.452;30.372;2024-01-27T04:02:09;12.50;;;6.90;;
33287;SDS011;19657;50.452;30.372;2024-01-27T04:04:55;10.70;;;7.00;;
33287;SDS011;19657;50.452;30.372;2024-01-27T04:07:41;9.20;;;6.70;;
33287;SDS011;19657;50.452;30.372;2024-01-27T04:10:26;10.10;;;6.50;;
33287;SDS011;19657;50.452;30.372;2024-01-27T04:13:13;10.40;;;6.10;;
33287;SDS011;19657;50.452;30.372;2024-01-27T04:15:59;10.30;;;7.40;;
33287;SDS011;19657;50.452;30.372;2024-01-27T04:18:47;10.30;;;7.00;;
33287;SDS011;19657;50.452;30.372;2024-01-27T04:21:33;10.00;;;6.70;;
33287;SDS011;19657;50.452;30.372;2024-01-27T04:24:19;12.80;;;7.60;;
33287;SDS011;19657;50.452;30.372;2024-01-27T04:27:06;10.00;;;6.60;;
33287;SDS011;19657;50.452;30.372;2024-01-27T04:29:52;11.60;;;7.40;;
33287;SDS011;19657;50.452;30.372;2024-01-27T04:32:38;11.90;;;8.50;;
33287;SDS011;19657;50.452;30.372;2024-01-27T04:35:25;17.10;;;9.90;;
33287;SDS011;19657;50.452;30.372;2024-01-27T04:38:11;22.50;;;10.30;;
33287;SDS011;19657;50.452;30.372;2024-01-27T04:40:57;10.80;;;7.30;;
33287;SDS011;19657;50.452;30.372;2024-01-27T04:43:43;13.10;;;8.60;;
33287;SDS011;19657;50.452;30.372;2024-01-27T04:46:29;13.40;;;8.80;;
33287;SDS011;19657;50.452;30.372;2024-01-27T04:49:15;11.30;;;7.40;;
33287;SDS011;19657;50.452;30.372;2024-01-27T04:52:02;10.70;;;6.90;;
33287;SDS011;19657;50.452;30.372;2024-01-27T04:54:48;12.20;;;7.10;;
33287;SDS011;19657;50.452;30.372;2024-01-27T04:57:34;11.20;;;8.00;;
33287;SDS011;19657;50.452;30.372;2024-01-27T05:00:21;10.40;;;7.00;;
33287;SDS011;19657;50.452;30.372;2024-01-27T05:03:07;10.00;;;7.10;;
33287;SDS011;19657;50.452;30.372;2024-01-27T05:08:46;10.10;;;7.00;;
33287;SDS011;19657;50.452;30.372;2024-01-27T05:11:32;11.70;;;7.50;;
33287;SDS011;19657;50.452;30.372;2024-01-27T05:14:18;11.50;;;7.20;;
33287;SDS011;19657;50.452;30.372;2024-01-27T05:17:05;11.70;;;7.30;;
33287;SDS011;19657;50.452;30.372;2024-01-27T05:19:51;9.00;;;6.50;;
33287;SDS011;19657;50.452;30.372;2024-01-27T05:22:37;10.90;;;6.80;;
33287;SDS011;19657;50.452;30.372;2024-01-27T05:25:23;12.90;;;8.20;;
33287;SDS011;19657;50.452;30.372;2024-01-27T05:28:09;10.30;;;6.90;;
33287;SDS011;19657;50.452;30.372;2024-01-27T05:30:55;12.00;;;7.70;;
33287;SDS011;19657;50.452;30.372;2024-01-27T05:33:42;11.40;;;7.00;;
33287;SDS011;19657;50.452;30.372;2024-01-27T05:36:28;13.40;;;6.80;;
33287;SDS011;19657;50.452;30.372;2024-01-27T05:39:15;10.90;;;7.80;;
33287;SDS011;19657;50.452;30.372;2024-01-27T05:42:01;9.70;;;7.20;;
33287;SDS011;19657;50.452;30.372;2024-01-27T05:44:47;11.60;;;7.20;;
33287;SDS011;19657;50.452;30.372;2024-01-27T05:47:33;11.20;;;7.20;;
33287;SDS011;19657;50.452;30.372;2024-01-27T05:50:20;10.40;;;7.80;;
33287;SDS011;19657;50.452;30.372;2024-01-27T05:53:06;14.20;;;10.00;;
33287;SDS011;19657;50.452;30.372;2024-01-27T05:55:52;11.80;;;7.10;;
33287;SDS011;19657;50.452;30.372;2024-01-27T05:58:40;12.50;;;8.10;;
33287;SDS011;19657;50.452;30.372;2024-01-27T06:01:26;11.80;;;8.80;;
33287;SDS011;19657;50.452;30.372;2024-01-27T06:04:12;13.70;;;8.90;;
33287;SDS011;19657;50.452;30.372;2024-01-27T06:06:59;10.30;;;8.00;;
33287;SDS011;19657;50.452;30.372;2024-01-27T06:09:46;15.70;;;9.40;;
33287;SDS011;19657;50.452;30.372;2024-01-27T06:12:32;11.50;;;8.70;;
33287;SDS011;19657;50.452;30.372;2024-01-27T06:15:18;10.40;;;7.10;;
33287;SDS011;19657;50.452;30.372;2024-01-27T06:18:04;14.50;;;8.40;;
33287;SDS011;19657;50.452;30.372;2024-01-27T06:20:51;13.10;;;9.10;;
33287;SDS011;19657;50.452;30.372;2024-01-27T06:23:38;11.50;;;8.10;;
33287;SDS011;19657;50.452;30.372;2024-01-27T06:26:24;11.50;;;7.90;;
33287;SDS011;19657;50.452;30.372;2024-01-27T06:29:10;11.20;;;7.90;;
33287;SDS011;19657;50.452;30.372;2024-01-27T06:31:56;15.20;;;8.90;;
33287;SDS011;19657;50.452;30.372;2024-01-27T06:34:42;15.70;;;9.90;;
33287;SDS011;19657;50.452;30.372;2024-01-27T06:37:28;16.50;;;9.60;;
33287;SDS011;19657;50.452;30.372;2024-01-27T06:40:14;14.90;;;9.60;;
33287;SDS011;19657;50.452;30.372;2024-01-27T06:43:00;15.50;;;10.10;;
33287;SDS011;19657;50.452;30.372;2024-01-27T06:45:49;14.00;;;8.70;;
33287;SDS011;19657;50.452;30.372;2024-01-27T06:48:35;13.20;;;8.90;;
33287;SDS011;19657;50.452;30.372;2024-01-27T06:51:21;12.80;;;8.40;;
33287;SDS011;19657;50.452;30.372;2024-01-27T06:54:07;19.20;;;9.80;;
33287;SDS011;19657;50.452;30.372;2024-01-27T06:56:54;13.50;;;8.70;;
33287;SDS011;19657;50.452;30.372;2024-01-27T06:59:40;17.50;;;9.30;;
33287;SDS011;19657;50.452;30.372;2024-01-27T07:02:26;11.00;;;7.50;;
33287;SDS011;19657;50.452;30.372;2024-01-27T07:05:12;12.10;;;7.40;;
33287;SDS011;19657;50.452;30.372;2024-01-27T07:08:00;13.60;;;8.20;;
33287;SDS011;19657;50.452;30.372;2024-01-27T07:10:47;11.80;;;7.90;;
33287;SDS011;19657;50.452;30.372;2024-01-27T07:13:33;12.60;;;8.20;;
33287;SDS011;19657;50.452;30.372;2024-01-27T07:16:20;12.30;;;8.10;;
33287;SDS011;19657;50.452;30.372;2024-01-27T07:19:06;15.10;;;9.80;;
33287;SDS011;19657;50.452;30.372;2024-01-27T07:21:52;18.30;;;10.00;;
33287;SDS011;19657;50.452;30.372;2024-01-27T07:24:38;12.70;;;7.70;;
33287;SDS011;19657;50.452;30.372;2024-01-27T07:27:25;13.70;;;8.70;;
33287;SDS011;19657;50.452;30.372;2024-01-27T07:30:11;14.70;;;9.80;;
33287;SDS011;19657;50.452;30.372;2024-01-27T07:32:57;14.20;;;8.80;;
33287;SDS011;19657;50.452;30.372;2024-01-27T07:35:44;11.40;;;8.10;;
33287;SDS011;19657;50.452;30.372;2024-01-27T07:38:29;12.80;;;7.50;;
33287;SDS011;19657;50.452;30.372;2024-01-27T07:41:16;17.50;;;10.90;;
33287;SDS011;19657;50.452;30.372;2024-01-27T07:44:09;14.60;;;8.90;;
33287;SDS011;19657;50.452;30.372;2024-01-27T07:46:56;15.50;;;11.00;;
33287;SDS011;19657;50.452;30.372;2024-01-27T07:49:42;17.30;;;10.30;;
33287;SDS011;19657;50.452;30.372;2024-01-27T07:52:29;14.20;;;9.10;;
33287;SDS011;19657;50.452;30.372;2024-01-27T07:55:15;18.00;;;11.50;;
33287;SDS011;19657;50.452;30.372;2024-01-27T07:58:02;15.60;;;10.60;;
33287;SDS011;19657;50.452;30.372;2024-01-27T08:00:48;17.40;;;11.60;;
33287;SDS011;19657;50.452;30.372;2024-01-27T08:03:34;15.00;;;10.30;;
33287;SDS011;19657;50.452;30.372;2024-01-27T08:06:27;14.50;;;10.60;;
33287;SDS011;19657;50.452;30.372;2024-01-27T08:09:16;17.20;;;11.20;;
33287;SDS011;19657;50.452;30.372;2024-01-27T08:12:03;18.20;;;11.10;;
33287;SDS011;19657;50.452;30.372;2024-01-27T08:14:49;16.50;;;11.00;;
33287;SDS011;19657;50.452;30.372;2024-01-27T08:17:35;16.10;;;10.30;;
33287;SDS011;19657;50.452;30.372;2024-01-27T08:20:25;18.10;;;12.00;;
33287;SDS011;19657;50.452;30.372;2024-01-27T08:23:11;21.70;;;13.30;;
33287;SDS011;19657;50.452;30.372;2024-01-27T08:25:57;29.00;;;16.70;;
33287;SDS011;19657;50.452;30.372;2024-01-27T08:28:43;30.30;;;17.80;;
33287;SDS011;19657;50.452;30.372;2024-01-27T08:31:29;17.20;;;10.90;;
33287;SDS011;19657;50.452;30.372;2024-01-27T08:34:15;17.90;;;11.20;;
33287;SDS011;19657;50.452;30.372;2024-01-27T08:37:02;13.10;;;8.40;;
33287;SDS011;19657;50.452;30.372;2024-01-27T08:39:48;19.30;;;12.20;;
33287;SDS011;19657;50.452;30.372;2024-01-27T08:42:36;24.40;;;14.90;;
33287;SDS011;19657;50.452;30.372;2024-01-27T08:45:22;19.00;;;11.70;;
33287;SDS011;19657;50.452;30.372;2024-01-27T08:48:09;13.50;;;9.00;;
33287;SDS011;19657;50.452;30.372;2024-01-27T08:50:57;12.50;;;7.90;;
33287;SDS011;19657;50.452;30.372;2024-01-27T08:53:44;26.30;;;13.30;;
33287;SDS011;19657;50.452;30.372;2024-01-27T08:56:38;16.50;;;11.00;;
33287;SDS011;19657;50.452;30.372;2024-01-27T08:59:25;14.20;;;10.00;;
33287;SDS011;19657;50.452;30.372;2024-01-27T09:02:11;15.40;;;10.10;;
33287;SDS011;19657;50.452;30.372;2024-01-27T09:04:58;19.80;;;12.40;;
33287;SDS011;19657;50.452;30.372;2024-01-27T09:07:44;20.30;;;12.70;;
33287;SDS011;19657;50.452;30.372;2024-01-27T09:10:31;23.00;;;12.10;;
33287;SDS011;19657;50.452;30.372;2024-01-27T09:13:17;16.30;;;11.20;;
33287;SDS011;19657;50.452;30.372;2024-01-27T09:16:03;14.90;;;9.40;;
33287;SDS011;19657;50.452;30.372;2024-01-27T09:18:49;17.90;;;10.00;;
33287;SDS011;19657;50.452;30.372;2024-01-27T09:21:36;12.40;;;8.60;;
33287;SDS011;19657;50.452;30.372;2024-01-27T09:24:23;18.20;;;9.30;;
33287;SDS011;19657;50.452;30.372;2024-01-27T09:27:09;12.90;;;9.20;;
33287;SDS011;19657;50.452;30.372;2024-01-27T09:29:56;15.30;;;9.20;;
33287;SDS011;19657;50.452;30.372;2024-01-27T09:32:42;15.40;;;8.90;;
33287;SDS011;19657;50.452;30.372;2024-01-27T09:35:29;12.90;;;8.40;;
33287;SDS011;19657;50.452;30.372;2024-01-27T09:38:14;13.70;;;9.30;;
33287;SDS011;19657;50.452;30.372;2024-01-27T09:41:00;15.10;;;8.60;;
33287;SDS011;19657;50.452;30.372;2024-01-27T09:43:47;12.10;;;8.10;;
33287;SDS011;19657;50.452;30.372;2024-01-27T09:46:33;11.10;;;7.70;;
33287;SDS011;19657;50.452;30.372;2024-01-27T09:49:20;14.10;;;9.40;;
33287;SDS011;19657;50.452;30.372;2024-01-27T09:52:06;12.40;;;7.80;;
33287;SDS011;19657;50.452;30.372;2024-01-27T09:54:53;11.90;;;8.10;;
33287;SDS011;19657;50.452;30.372;2024-01-27T09:57:39;13.60;;;9.00;;
33287;SDS011;19657;50.452;30.372;2024-01-27T10:00:26;15.40;;;9.90;;
33287;SDS011;19657;50.452;30.372;2024-01-27T10:03:13;14.60;;;9.40;;
33287;SDS011;19657;50.452;30.372;2024-01-27T10:06:00;12.30;;;7.80;;
33287;SDS011;19657;50.452;30.372;2024-01-27T10:08:55;13.70;;;8.60;;
33287;SDS011;19657;50.452;30.372;2024-01-27T10:11:45;12.60;;;8.80;;
33287;SDS011;19657;50.452;30.372;2024-01-27T10:14:40;14.50;;;8.10;;
33287;SDS011;19657;50.452;30.372;2024-01-27T10:17:27;13.60;;;8.60;;
33287;SDS011;19657;50.452;30.372;2024-01-27T10:20:18;13.80;;;8.70;;
33287;SDS011;19657;50.452;30.372;2024-01-27T10:23:12;13.00;;;7.70;;
33287;SDS011;19657;50.452;30.372;2024-01-27T10:25:59;15.10;;;9.80;;
33287;SDS011;19657;50.452;30.372;2024-01-27T10:28:55;12.50;;;8.30;;
33287;SDS011;19657;50.452;30.372;2024-01-27T10:31:42;11.90;;;8.60;;
33287;SDS011;19657;50.452;30.372;2024-01-27T10:34:28;12.40;;;8.20;;
33287;SDS011;19657;50.452;30.372;2024-01-27T10:37:14;12.30;;;8.40;;
33287;SDS011;19657;50.452;30.372;2024-01-27T10:40:04;13.10;;;8.70;;
33287;SDS011;19657;50.452;30.372;2024-01-27T10:45:48;11.70;;;7.90;;
33287;SDS011;19657;50.452;30.372;2024-01-27T10:48:35;11.50;;;7.60;;
33287;SDS011;19657;50.452;30.372;2024-01-27T10:51:25;14.70;;;8.20;;
33287;SDS011;19657;50.452;30.372;2024-01-27T10:54:20;14.60;;;9.00;;
33287;SDS011;19657;50.452;30.372;2024-01-27T10:57:09;15.20;;;8.70;;
33287;SDS011;19657;50.452;30.372;2024-01-27T10:59:57;14.00;;;9.20;;
33287;SDS011;19657;50.452;30.372;2024-01-27T11:02:44;16.90;;;9.70;;
33287;SDS011;19657;50.452;30.372;2024-01-27T11:05:31;15.40;;;9.60;;
33287;SDS011;19657;50.452;30.372;2024-01-27T11:08:21;14.30;;;9.00;;
33287;SDS011;19657;50.452;30.372;2024-01-27T11:11:14;11.60;;;7.90;;
33287;SDS011;19657;50.452;30.372;2024-01-27T11:14:00;19.00;;;12.20;;
33287;SDS011;19657;50.452;30.372;2024-01-27T11:16:47;15.70;;;10.50;;
33287;SDS011;19657;50.452;30.372;2024-01-27T11:19:33;13.80;;;8.80;;
33287;SDS011;19657;50.452;30.372;2024-01-27T11:22:24;16.40;;;10.30;;
33287;SDS011;19657;50.452;30.372;2024-01-27T11:27:59;22.00;;;12.40;;
33287;SDS011;19657;50.452;30.372;2024-01-27T11:30:57;13.60;;;8.70;;
33287;SDS011;19657;50.452;30.372;2024-01-27T11:33:43;15.30;;;8.30;;
33287;SDS011;19657;50.452;30.372;2024-01-27T11:36:32;16.00;;;10.50;;
33287;SDS011;19657;50.452;30.372;2024-01-27T11:39:30;15.30;;;10.70;;
33287;SDS011;19657;50.452;30.372;2024-01-27T11:42:17;14.70;;;9.80;;
33287;SDS011;19657;50.452;30.372;2024-01-27T11:45:04;17.20;;;10.60;;
33287;SDS011;19657;50.452;30.372;2024-01-27T11:47:50;20.40;;;11.50;;
33287;SDS011;19657;50.452;30.372;2024-01-27T11:50:37;17.50;;;10.50;;
33287;SDS011;19657;50.452;30.372;2024-01-27T11:53:23;22.50;;;14.20;;
33287;SDS011;19657;50.452;30.372;2024-01-27T11:56:09;20.90;;;13.20;;
33287;SDS011;19657;50.452;30.372;2024-01-27T11:58:55;14.10;;;8.70;;
33287;SDS011;19657;50.452;30.372;2024-01-27T12:01:41;15.60;;;9.50;;
33287;SDS011;19657;50.452;30.372;2024-01-27T12:04:28;13.10;;;8.80;;
33287;SDS011;19657;50.452;30.372;2024-01-27T12:07:15;14.20;;;9.30;;
33287;SDS011;19657;50.452;30.372;2024-01-27T12:10:02;16.20;;;9.90;;
33287;SDS011;19657;50.452;30.372;2024-01-27T12:12:48;14.30;;;9.00;;
33287;SDS011;19657;50.452;30.372;2024-01-27T12:15:34;16.00;;;10.50;;
33287;SDS011;19657;50.452;30.372;2024-01-27T12:18:20;16.40;;;10.50;;
33287;SDS011;19657;50.452;30.372;2024-01-27T12:21:08;15.70;;;10.60;;
33287;SDS011;19657;50.452;30.372;2024-01-27T12:23:56;18.40;;;11.90;;
33287;SDS011;19657;50.452;30.372;2024-01-27T12:26:45;16.60;;;11.40;;
33287;SDS011;19657;50.452;30.372;2024-01-27T12:29:33;19.10;;;12.00;;
33287;SDS011;19657;50.452;30.372;2024-01-27T12:32:19;18.20;;;10.90;;
33287;SDS011;19657;50.452;30.372;2024-01-27T12:35:06;15.50;;;9.80;;
33287;SDS011;19657;50.452;30.372;2024-01-27T12:37:53;19.60;;;11.70;;
33287;SDS011;19657;50.452;30.372;2024-01-27T12:40:39;19.60;;;10.70;;
33287;SDS011;19657;50.452;30.372;2024-01-27T12:43:26;17.50;;;10.70;;
33287;SDS011;19657;50.452;30.372;2024-01-27T12:46:12;17.00;;;9.80;;
33287;SDS011;19657;50.452;30.372;2024-01-27T12:49:00;16.60;;;10.30;;
33287;SDS011;19657;50.452;30.372;2024-01-27T12:51:47;17.80;;;9.90;;
33287;SDS011;19657;50.452;30.372;2024-01-27T12:54:34;28.30;;;17.60;;
33287;SDS011;19657;50.452;30.372;2024-01-27T12:57:21;27.10;;;14.90;;
33287;SDS011;19657;50.452;30.372;2024-01-27T13:00:07;19.70;;;10.80;;
33287;SDS011;19657;50.452;30.372;2024-01-27T13:02:56;14.40;;;8.70;;
33287;SDS011;19657;50.452;30.372;2024-01-27T13:05:42;16.50;;;10.70;;
33287;SDS011;19657;50.452;30.372;2024-01-27T13:08:28;15.60;;;9.30;;
33287;SDS011;19657;50.452;30.372;2024-01-27T13:11:14;18.60;;;11.50;;
33287;SDS011;19657;50.452;30.372;2024-01-27T13:14:01;14.70;;;9.70;;
33287;SDS011;19657;50.452;30.372;2024-01-27T13:16:46;17.50;;;11.40;;
33287;SDS011;19657;50.452;30.372;2024-01-27T13:19:33;22.40;;;11.50;;
33287;SDS011;19657;50.452;30.372;2024-01-27T13:22:20;18.00;;;10.00;;
33287;SDS011;19657;50.452;30.372;2024-01-27T13:25:10;19.90;;;12.20;;
33287;SDS011;19657;50.452;30.372;2024-01-27T13:27:56;18.70;;;11.30;;
33287;SDS011;19657;50.452;30.372;2024-01-27T13:30:42;28.40;;;15.40;;
33287;SDS011;19657;50.452;30.372;2024-01-27T13:33:28;20.30;;;12.60;;
33287;SDS011;19657;50.452;30.372;2024-01-27T13:36:15;21.50;;;12.30;;
33287;SDS011;19657;50.452;30.372;2024-01-27T13:39:03;27.10;;;16.30;;
33287;SDS011;19657;50.452;30.372;2024-01-27T13:41:50;26.80;;;18.50;;
33287;SDS011;19657;50.452;30.372;2024-01-27T13:44:35;26.90;;;16.90;;
33287;SDS011;19657;50.452;30.372;2024-01-27T13:47:22;19.90;;;11.90;;
33287;SDS011;19657;50.452;30.372;2024-01-27T13:50:09;21.60;;;12.60;;
33287;SDS011;19657;50.452;30.372;2024-01-27T13:52:55;25.70;;;14.70;;
33287;SDS011;19657;50.452;30.372;2024-01-27T13:55:41;23.30;;;12.60;;
33287;SDS011;19657;50.452;30.372;2024-01-27T13:58:29;20.10;;;13.10;;
33287;SDS011;19657;50.452;30.372;2024-01-27T14:01:15;24.60;;;14.40;;
33287;SDS011;19657;50.452;30.372;2024-01-27T14:04:02;24.10;;;15.90;;
33287;SDS011;19657;50.452;30.372;2024-01-27T14:06:48;22.70;;;13.60;;
33287;SDS011;19657;50.452;30.372;2024-01-27T14:09:35;24.40;;;14.20;;
33287;SDS011;19657;50.452;30.372;2024-01-27T14:12:23;22.00;;;14.10;;
33287;SDS011;19657;50.452;30.372;2024-01-27T14:15:09;25.80;;;14.30;;
33287;SDS011;19657;50.452;30.372;2024-01-27T14:17:55;19.10;;;11.90;;
33287;SDS011;19657;50.452;30.372;2024-01-27T14:20:42;20.70;;;11.90;;
33287;SDS011;19657;50.452;30.372;2024-01-27T14:23:30;20.20;;;12.20;;
33287;SDS011;19657;50.452;30.372;2024-01-27T14:26:17;23.40;;;13.80;;
33287;SDS011;19657;50.452;30.372;2024-01-27T14:29:10;23.10;;;13.60;;
33287;SDS011;19657;50.452;30.372;2024-01-27T14:31:56;21.50;;;13.00;;
33287;SDS011;19657;50.452;30.372;2024-01-27T14:38:27;23.30;;;14.50;;
33287;SDS011;19657;50.452;30.372;2024-01-27T14:41:13;21.70;;;12.80;;
33287;SDS011;19657;50.452;30.372;2024-01-27T14:43:58;20.50;;;12.00;;
33287;SDS011;19657;50.452;30.372;2024-01-27T14:46:45;21.70;;;13.40;;
33287;SDS011;19657;50.452;30.372;2024-01-27T14:49:31;20.80;;;12.30;;
33287;SDS011;19657;50.452;30.372;2024-01-27T14:52:18;20.80;;;13.00;;
33287;SDS011;19657;50.452;30.372;2024-01-27T14:55:05;25.20;;;14.60;;
33287;SDS011;19657;50.452;30.372;2024-01-27T14:57:54;24.60;;;14.50;;
33287;SDS011;19657;50.452;30.372;2024-01-27T15:00:40;26.20;;;15.40;;
33287;SDS011;19657;50.452;30.372;2024-01-27T15:03:26;24.20;;;14.40;;
33287;SDS011;19657;50.452;30.372;2024-01-27T15:06:13;27.90;;;17.00;;
33287;SDS011;19657;50.452;30.372;2024-01-27T15:08:59;26.40;;;15.90;;
33287;SDS011;19657;50.452;30.372;2024-01-27T15:11:46;30.00;;;17.10;;
33287;SDS011;19657;50.452;30.372;2024-01-27T15:14:33;23.70;;;14.90;;
33287;SDS011;19657;50.452;30.372;2024-01-27T15:17:19;24.60;;;14.00;;
33287;SDS011;19657;50.452;30.372;2024-01-27T15:20:07;21.50;;;12.40;;
33287;SDS011;19657;50.452;30.372;2024-01-27T15:22:54;22.60;;;13.70;;
33287;SDS011;19657;50.452;30.372;2024-01-27T15:25:45;23.50;;;13.60;;
33287;SDS011;19657;50.452;30.372;2024-01-27T15:28:31;28.00;;;16.90;;
33287;SDS011;19657;50.452;30.372;2024-01-27T15:31:18;24.30;;;15.60;;
33287;SDS011;19657;50.452;30.372;2024-01-27T15:34:07;26.70;;;16.00;;
33287;SDS011;19657;50.452;30.372;2024-01-27T15:36:54;24.10;;;14.20;;
33287;SDS011;19657;50.452;30.372;2024-01-27T15:39:40;25.40;;;15.60;;
33287;SDS011;19657;50.452;30.372;2024-01-27T15:42:28;24.70;;;14.40;;
33287;SDS011;19657;50.452;30.372;2024-01-27T15:45:15;23.90;;;13.20;;
33287;SDS011;19657;50.452;30.372;2024-01-27T15:48:01;24.10;;;14.20;;
33287;SDS011;19657;50.452;30.372;2024-01-27T15:50:48;22.90;;;15.90;;
33287;SDS011;19657;50.452;30.372;2024-01-27T15:53:34;23.20;;;13.60;;
33287;SDS011;19657;50.452;30.372;2024-01-27T15:56:20;22.90;;;12.50;;
33287;SDS011;19657;50.452;30.372;2024-01-27T15:59:06;18.90;;;11.40;;
33287;SDS011;19657;50.452;30.372;2024-01-27T16:01:52;20.00;;;11.90;;
33287;SDS011;19657;50.452;30.372;2024-01-27T16:04:39;20.00;;;12.40;;
33287;SDS011;19657;50.452;30.372;2024-01-27T16:07:25;20.90;;;12.20;;
33287;SDS011;19657;50.452;30.372;2024-01-27T16:10:11;20.70;;;11.80;;
33287;SDS011;19657;50.452;30.372;2024-01-27T16:12:57;22.10;;;13.10;;
33287;SDS011;19657;50.452;30.372;2024-01-27T16:15:43;23.20;;;12.40;;
33287;SDS011;19657;50.452;30.372;2024-01-27T16:18:31;21.70;;;13.40;;
33287;SDS011;19657;50.452;30.372;2024-01-27T16:21:17;23.60;;;12.90;;